Time;durP1;ratioP1;P1;durP2;ratioP2;P2;SDS_P1;SDS_P2;PMS_P1;PMS_P2;Temp;Humidity;BMP_temperature;BMP_pressure;BME280_temperature;BME280_humidity;BME280_pressure;Samples;Min_cycle;Max_cycle;Signal;HPM_P1;HPM_P2
2023/07/30 00:00:35;;;;;;;2.13;1.90;;;20.50;99.90;;;;;;5056896;28;20227;-71
2023/07/30 00:03:00;;;;;;;2.37;1.63;;;20.60;99.90;;;;;;5061480;28;20193;-70
2023/07/30 00:05:26;;;;;;;4.83;2.10;;;20.60;99.90;;;;;;5063018;28;20389;-70
2023/07/30 00:07:52;;;;;;;1.80;1.60;;;20.50;99.90;;;;;;5061902;28;20177;-71
2023/07/30 00:10:18;;;;;;;1.83;1.33;;;20.60;99.90;;;;;;5064153;28;20624;-71
2023/07/30 00:12:43;;;;;;;2.10;1.90;;;20.60;99.90;;;;;;5062018;28;20424;-70
2023/07/30 00:15:09;;;;;;;1.67;1.20;;;20.50;99.90;;;;;;5064211;28;20174;-71
2023/07/30 00:17:34;;;;;;;1.80;1.00;;;20.40;99.90;;;;;;5061382;28;20189;-71
2023/07/30 00:20:00;;;;;;;1.30;0.70;;;20.20;99.90;;;;;;5063713;28;20203;-70
2023/07/30 00:22:25;;;;;;;1.53;1.10;;;20.10;99.90;;;;;;5063055;28;20698;-70
2023/07/30 00:24:51;;;;;;;1.43;1.20;;;20.10;99.90;;;;;;5064621;28;20185;-70
2023/07/30 00:27:16;;;;;;;1.67;1.13;;;19.90;99.90;;;;;;5061437;28;20197;-70
2023/07/30 00:29:42;;;;;;;1.50;1.40;;;19.90;99.90;;;;;;5060652;28;20182;-70
2023/07/30 00:32:08;;;;;;;2.30;1.60;;;19.90;99.90;;;;;;5058416;28;20190;-71
2023/07/30 00:34:33;;;;;;;3.00;1.97;;;20.00;99.90;;;;;;5063339;28;20216;-70
2023/07/30 00:36:59;;;;;;;2.33;2.07;;;20.00;99.90;;;;;;5062571;28;20637;-70
2023/07/30 00:39:24;;;;;;;2.10;1.73;;;20.00;99.90;;;;;;5063764;28;20181;-70
2023/07/30 00:41:50;;;;;;;3.83;1.70;;;20.00;99.90;;;;;;5060702;28;20197;-71
2023/07/30 00:44:16;;;;;;;2.33;1.70;;;20.20;99.90;;;;;;5063131;28;20712;-70
2023/07/30 00:46:41;;;;;;;1.80;1.60;;;20.40;99.90;;;;;;5062942;28;20540;-71
2023/07/30 00:49:07;;;;;;;2.20;2.00;;;20.40;99.90;;;;;;5064122;28;20523;-70
2023/07/30 00:51:34;;;;;;;2.37;2.00;;;20.40;99.90;;;;;;5061911;28;20185;-71
2023/07/30 00:54:00;;;;;;;2.20;1.80;;;20.50;99.90;;;;;;5062181;28;20249;-71
2023/07/30 00:56:26;;;;;;;2.70;2.27;;;20.30;99.90;;;;;;5061741;28;20459;-71
2023/07/30 00:58:53;;;;;;;2.93;1.80;;;20.30;99.90;;;;;;5063704;28;20857;-71
2023/07/30 01:01:18;;;;;;;2.47;2.03;;;20.30;99.90;;;;;;5061950;28;20774;-70
2023/07/30 01:03:44;;;;;;;3.70;3.27;;;20.30;99.90;;;;;;5056531;28;20421;-70
2023/07/30 01:06:10;;;;;;;3.30;2.80;;;20.20;99.90;;;;;;5062722;28;20222;-71
2023/07/30 01:08:36;;;;;;;3.67;2.90;;;20.30;99.90;;;;;;5066188;28;20891;-70
2023/07/30 01:11:03;;;;;;;2.87;2.67;;;20.40;99.90;;;;;;5063473;28;20219;-70
2023/07/30 01:13:30;;;;;;;3.20;2.80;;;20.30;99.90;;;;;;5062838;28;20214;-70
2023/07/30 01:15:56;;;;;;;3.73;2.63;;;20.40;99.90;;;;;;5067257;28;20404;-70
2023/07/30 01:18:21;;;;;;;2.70;2.50;;;20.50;99.90;;;;;;5065956;28;20463;-71
2023/07/30 01:20:47;;;;;;;4.90;3.33;;;20.50;99.90;;;;;;5067684;28;20197;-71
2023/07/30 01:23:12;;;;;;;3.67;3.33;;;20.60;99.90;;;;;;5064429;28;20246;-70
2023/07/30 01:25:39;;;;;;;6.17;3.63;;;20.50;99.90;;;;;;5066081;28;20169;-69
2023/07/30 01:28:08;;;;;;;3.10;2.90;;;20.60;99.90;;;;;;5065102;28;20227;-70
2023/07/30 01:30:44;;;;;;;3.60;3.30;;;20.60;99.90;;;;;;5066094;28;20462;-70
2023/07/30 01:33:11;;;;;;;4.17;3.40;;;20.60;99.90;;;;;;5057633;28;20911;-70
2023/07/30 01:35:37;;;;;;;3.40;3.10;;;20.60;99.90;;;;;;5065216;28;20420;-70
2023/07/30 01:38:05;;;;;;;3.53;3.10;;;20.60;99.90;;;;;;5065518;28;20958;-70
2023/07/30 01:40:31;;;;;;;5.30;4.10;;;20.70;99.90;;;;;;5064805;28;20895;-70
2023/07/30 01:42:57;;;;;;;3.30;3.00;;;20.70;99.90;;;;;;5067177;28;20434;-70
2023/07/30 01:45:23;;;;;;;4.60;3.57;;;20.60;99.90;;;;;;5062890;28;20397;-69
2023/07/30 01:47:48;;;;;;;4.53;3.03;;;20.60;99.90;;;;;;5066106;28;20293;-70
2023/07/30 01:50:14;;;;;;;4.33;3.93;;;20.60;99.90;;;;;;5064428;28;20167;-70
2023/07/30 01:52:39;;;;;;;4.00;3.70;;;20.60;99.90;;;;;;5066573;28;20183;-70
2023/07/30 01:55:05;;;;;;;3.73;3.30;;;20.50;99.90;;;;;;5063531;28;20173;-70
2023/07/30 01:57:31;;;;;;;5.97;4.37;;;20.50;99.90;;;;;;5066855;28;20664;-69
2023/07/30 01:59:56;;;;;;;3.37;2.97;;;20.50;99.90;;;;;;5064214;28;20420;-70
2023/07/30 02:02:22;;;;;;;3.60;3.30;;;20.50;99.90;;;;;;5062477;28;20191;-70
2023/07/30 02:04:48;;;;;;;3.90;3.47;;;20.50;99.90;;;;;;5064720;28;20174;-70
2023/07/30 02:07:13;;;;;;;5.23;3.80;;;20.40;99.90;;;;;;5059184;28;20305;-69
2023/07/30 02:09:39;;;;;;;3.37;3.07;;;20.30;99.90;;;;;;5065171;28;20238;-70
2023/07/30 02:12:05;;;;;;;3.60;3.30;;;20.40;99.90;;;;;;5065934;28;20668;-70
2023/07/30 02:14:30;;;;;;;4.00;3.50;;;20.40;99.90;;;;;;5063599;28;20539;-69
2023/07/30 02:16:56;;;;;;;6.20;3.50;;;20.30;99.90;;;;;;5063207;28;20412;-69
2023/07/30 02:19:21;;;;;;;5.67;4.17;;;20.30;99.90;;;;;;5063004;28;20174;-69
2023/07/30 02:21:47;;;;;;;4.00;3.50;;;20.30;99.90;;;;;;5066149;28;20589;-69
2023/07/30 02:24:12;;;;;;;4.00;3.00;;;20.20;99.90;;;;;;5064015;28;20640;-69
2023/07/30 02:26:39;;;;;;;4.03;3.63;;;20.20;99.90;;;;;;5064267;28;20193;-68
2023/07/30 02:29:04;;;;;;;4.93;3.80;;;20.20;99.90;;;;;;5063254;28;20202;-69
2023/07/30 02:31:30;;;;;;;4.10;3.70;;;20.20;99.90;;;;;;5064443;28;20426;-69
2023/07/30 02:33:56;;;;;;;3.80;3.03;;;20.10;99.90;;;;;;5064975;28;20166;-69
2023/07/30 02:36:22;;;;;;;3.83;3.50;;;20.10;99.90;;;;;;5065865;28;20257;-69
2023/07/30 02:38:47;;;;;;;4.30;3.47;;;20.20;99.90;;;;;;5063218;28;20416;-69
2023/07/30 02:41:13;;;;;;;3.53;3.20;;;20.20;99.90;;;;;;5064455;28;20167;-68
2023/07/30 02:43:39;;;;;;;5.13;3.27;;;20.20;99.90;;;;;;5065679;28;20166;-69
2023/07/30 02:46:04;;;;;;;4.20;3.80;;;20.30;99.90;;;;;;5065926;28;20202;-69
2023/07/30 02:48:30;;;;;;;3.03;2.73;;;20.30;99.90;;;;;;5064180;28;20170;-69
2023/07/30 02:50:55;;;;;;;5.50;3.13;;;20.40;99.90;;;;;;5062730;28;20170;-69
2023/07/30 02:53:21;;;;;;;3.67;2.70;;;20.20;99.90;;;;;;5065736;28;20189;-69
2023/07/30 02:55:46;;;;;;;4.90;3.87;;;20.30;99.90;;;;;;5063672;28;20173;-69
2023/07/30 02:58:12;;;;;;;2.97;2.77;;;20.10;99.90;;;;;;5060609;28;20185;-68
2023/07/30 03:00:37;;;;;;;4.13;2.73;;;20.00;99.90;;;;;;5065887;28;20514;-69
2023/07/30 03:03:04;;;;;;;4.10;3.70;;;20.00;99.90;;;;;;5061645;28;20252;-68
2023/07/30 03:05:29;;;;;;;3.97;3.67;;;20.10;99.90;;;;;;5065681;28;20188;-68
2023/07/30 03:07:55;;;;;;;5.13;3.80;;;20.10;99.90;;;;;;5062627;28;20441;-69
2023/07/30 03:10:20;;;;;;;3.30;3.00;;;20.10;99.90;;;;;;5065143;28;20175;-69
2023/07/30 03:12:46;;;;;;;4.67;3.70;;;20.10;99.90;;;;;;5064049;28;20178;-69
2023/07/30 03:15:12;;;;;;;4.20;3.67;;;20.00;99.90;;;;;;5055316;28;20294;-70
2023/07/30 03:17:37;;;;;;;4.23;3.40;;;20.00;99.90;;;;;;5063580;28;20698;-70
2023/07/30 03:20:04;;;;;;;3.47;3.17;;;20.00;99.90;;;;;;5063821;28;20171;-69
2023/07/30 03:22:30;;;;;;;3.03;2.73;;;20.00;99.90;;;;;;5064662;28;20202;-69
2023/07/30 03:24:55;;;;;;;3.30;2.77;;;19.90;99.90;;;;;;5063130;28;20812;-69
2023/07/30 03:27:21;;;;;;;2.93;2.70;;;20.00;99.90;;;;;;5064246;28;20274;-69
2023/07/30 03:29:46;;;;;;;3.37;3.07;;;20.00;99.90;;;;;;5062982;28;20645;-70
2023/07/30 03:32:12;;;;;;;6.37;3.43;;;20.00;99.90;;;;;;5060508;28;20214;-70
2023/07/30 03:34:37;;;;;;;3.23;2.97;;;20.00;99.90;;;;;;5064380;28;20162;-69
2023/07/30 03:37:03;;;;;;;3.50;2.80;;;20.00;99.90;;;;;;5063809;28;20166;-70
2023/07/30 03:39:29;;;;;;;3.50;2.80;;;20.10;99.90;;;;;;5063444;28;20170;-69
2023/07/30 03:41:54;;;;;;;3.40;3.10;;;20.10;99.90;;;;;;5062148;28;20213;-70
2023/07/30 03:44:20;;;;;;;3.00;2.80;;;20.20;99.90;;;;;;5063211;28;20171;-70
2023/07/30 03:46:46;;;;;;;3.07;2.80;;;20.20;99.90;;;;;;5064268;28;20191;-69
2023/07/30 03:49:11;;;;;;;3.53;3.23;;;20.30;99.90;;;;;;5064214;28;20176;-70
2023/07/30 03:51:38;;;;;;;3.93;3.23;;;20.30;99.90;;;;;;5062942;28;20482;-70
2023/07/30 03:54:04;;;;;;;4.27;3.50;;;20.30;99.90;;;;;;5061983;28;20216;-70
2023/07/30 03:56:30;;;;;;;4.40;3.23;;;20.20;99.90;;;;;;5063295;28;20401;-70
2023/07/30 03:58:55;;;;;;;4.13;3.47;;;20.20;99.90;;;;;;5063506;28;20434;-70
2023/07/30 04:01:21;;;;;;;3.83;3.53;;;20.30;99.90;;;;;;5059682;28;20166;-70
2023/07/30 04:03:47;;;;;;;4.30;2.90;;;20.30;99.90;;;;;;5057500;28;20224;-70
2023/07/30 04:06:12;;;;;;;3.70;3.07;;;20.30;99.90;;;;;;5061683;28;20251;-69
2023/07/30 04:08:38;;;;;;;3.30;2.90;;;20.30;99.90;;;;;;5062085;28;20171;-68
2023/07/30 04:11:04;;;;;;;3.70;3.10;;;20.30;99.90;;;;;;5064333;28;20161;-69
2023/07/30 04:13:29;;;;;;;3.70;3.40;;;20.20;99.90;;;;;;5061786;28;20713;-69
2023/07/30 04:15:55;;;;;;;3.40;3.10;;;20.30;99.90;;;;;;5062121;28;20170;-70
2023/07/30 04:18:22;;;;;;;3.90;3.13;;;20.40;99.90;;;;;;5061330;28;20172;-69
2023/07/30 04:20:48;;;;;;;2.73;2.53;;;20.30;99.90;;;;;;5056866;28;20192;-69
2023/07/30 04:23:13;;;;;;;3.73;2.60;;;20.20;99.90;;;;;;5062584;28;20441;-69
2023/07/30 04:25:39;;;;;;;4.20;2.77;;;20.10;99.90;;;;;;5061484;28;20293;-69
2023/07/30 04:28:04;;;;;;;2.53;2.30;;;20.20;99.90;;;;;;5063863;28;20550;-68
2023/07/30 04:30:30;;;;;;;3.70;2.87;;;20.20;99.90;;;;;;5062085;28;20170;-67
2023/07/30 04:32:55;;;;;;;2.63;2.43;;;20.30;99.90;;;;;;5064552;28;20197;-70
2023/07/30 04:35:21;;;;;;;2.37;2.17;;;20.30;99.90;;;;;;5063842;28;20241;-68
2023/07/30 04:37:46;;;;;;;2.43;2.20;;;20.20;99.90;;;;;;5059745;28;20258;-69
2023/07/30 04:40:12;;;;;;;2.87;2.13;;;20.30;99.90;;;;;;5063129;28;20604;-69
2023/07/30 04:42:38;;;;;;;2.47;2.13;;;20.20;99.90;;;;;;5060486;28;20600;-69
2023/07/30 04:45:04;;;;;;;2.63;2.17;;;20.30;99.90;;;;;;5061956;28;20355;-69
2023/07/30 04:47:29;;;;;;;2.30;1.90;;;20.30;99.90;;;;;;5052000;28;20245;-69
2023/07/30 04:49:55;;;;;;;2.50;2.30;;;20.30;99.90;;;;;;5047132;28;21006;-69
2023/07/30 04:52:21;;;;;;;2.50;2.20;;;20.20;99.90;;;;;;5058318;28;20219;-69
2023/07/30 04:54:46;;;;;;;2.60;2.40;;;20.20;99.90;;;;;;5060507;28;20233;-68
2023/07/30 04:57:12;;;;;;;3.00;2.60;;;20.30;99.90;;;;;;5062035;28;20411;-68
2023/07/30 04:59:37;;;;;;;2.70;2.03;;;20.30;99.90;;;;;;5052813;28;20175;-69
2023/07/30 05:02:03;;;;;;;2.70;2.50;;;20.50;99.90;;;;;;5061809;28;20266;-69
2023/07/30 05:04:28;;;;;;;2.73;2.50;;;20.50;99.90;;;;;;5058053;28;20201;-68
2023/07/30 05:06:54;;;;;;;4.30;2.47;;;20.50;99.90;;;;;;5059559;28;20228;-69
2023/07/30 05:09:19;;;;;;;2.50;2.30;;;20.60;99.90;;;;;;5060744;28;20182;-69
2023/07/30 05:11:45;;;;;;;2.17;1.90;;;20.60;99.90;;;;;;5060437;28;20275;-69
2023/07/30 05:14:10;;;;;;;4.33;2.47;;;20.60;99.90;;;;;;5060820;28;20170;-69
2023/07/30 05:16:37;;;;;;;2.60;2.40;;;20.50;99.90;;;;;;5060213;28;20213;-69
2023/07/30 05:19:03;;;;;;;2.53;2.33;;;20.50;99.90;;;;;;5055628;28;20171;-71
2023/07/30 05:21:28;;;;;;;2.93;2.40;;;20.50;99.90;;;;;;5058685;28;20804;-69
2023/07/30 05:23:54;;;;;;;3.40;2.53;;;20.60;99.90;;;;;;5062018;28;21878;-69
2023/07/30 05:26:19;;;;;;;3.00;2.73;;;20.60;99.90;;;;;;5060281;28;20198;-70
2023/07/30 05:28:45;;;;;;;3.00;2.70;;;20.70;99.90;;;;;;5059262;28;20633;-69
2023/07/30 05:31:10;;;;;;;3.33;2.97;;;20.70;99.90;;;;;;5062640;28;20643;-68
2023/07/30 05:33:36;;;;;;;5.17;3.10;;;20.80;99.90;;;;;;5061240;28;20158;-70
2023/07/30 05:36:02;;;;;;;3.03;2.73;;;20.70;99.90;;;;;;5058346;28;20243;-69
2023/07/30 05:38:27;;;;;;;5.00;2.50;;;20.80;99.90;;;;;;5060083;28;20175;-69
2023/07/30 05:40:53;;;;;;;2.80;2.60;;;20.70;99.90;;;;;;5058732;28;20680;-69
2023/07/30 05:43:18;;;;;;;4.27;3.50;;;20.80;99.90;;;;;;5062332;28;20263;-69
2023/07/30 05:45:44;;;;;;;2.97;2.67;;;20.90;99.90;;;;;;5055974;28;20531;-69
2023/07/30 05:48:10;;;;;;;3.00;2.60;;;20.90;99.90;;;;;;5059592;28;20231;-69
2023/07/30 05:50:35;;;;;;;3.03;2.60;;;20.90;99.90;;;;;;5057336;28;20217;-69
2023/07/30 05:53:01;;;;;;;6.77;3.60;;;20.90;99.90;;;;;;5062817;28;20185;-69
2023/07/30 05:55:26;;;;;;;5.43;2.50;;;21.00;99.90;;;;;;5063557;28;20191;-70
2023/07/30 05:57:53;;;;;;;3.20;2.73;;;20.90;99.90;;;;;;5065085;28;20239;-69
2023/07/30 06:00:19;;;;;;;2.60;2.40;;;21.00;99.90;;;;;;5062675;28;20737;-69
2023/07/30 06:02:44;;;;;;;5.13;3.00;;;21.10;99.90;;;;;;5064431;28;20511;-69
2023/07/30 06:05:10;;;;;;;3.30;2.70;;;21.20;99.90;;;;;;5063482;28;20548;-70
2023/07/30 06:07:35;;;;;;;3.20;2.90;;;21.30;99.90;;;;;;5065289;28;20197;-70
2023/07/30 06:10:01;;;;;;;3.33;3.03;;;21.40;99.90;;;;;;5058336;28;20633;-70
2023/07/30 06:12:27;;;;;;;3.47;3.10;;;21.50;99.90;;;;;;5064930;28;20191;-69
2023/07/30 06:14:52;;;;;;;4.40;2.33;;;21.50;99.90;;;;;;5065013;28;20545;-69
2023/07/30 06:17:18;;;;;;;3.57;2.70;;;21.50;99.90;;;;;;5064700;28;20174;-70
2023/07/30 06:19:43;;;;;;;3.40;2.60;;;21.60;99.90;;;;;;5059022;28;20707;-68
2023/07/30 06:22:09;;;;;;;3.90;2.73;;;21.70;99.90;;;;;;5065734;28;20220;-68
2023/07/30 06:24:34;;;;;;;3.20;2.90;;;21.80;99.90;;;;;;5062313;28;20171;-69
2023/07/30 06:27:00;;;;;;;2.80;2.20;;;22.00;99.90;;;;;;5066787;28;20212;-69
2023/07/30 06:29:25;;;;;;;2.47;1.90;;;21.90;99.90;;;;;;5063941;28;20167;-69
2023/07/30 06:31:51;;;;;;;3.10;2.30;;;21.90;99.90;;;;;;5065975;28;20201;-69
2023/07/30 06:34:16;;;;;;;2.50;2.17;;;21.90;99.90;;;;;;5063101;28;20181;-69
2023/07/30 06:36:42;;;;;;;2.43;2.23;;;21.90;99.90;;;;;;5066788;28;20205;-69
2023/07/30 06:39:07;;;;;;;2.53;2.33;;;21.90;99.90;;;;;;5063185;28;20182;-69
2023/07/30 06:41:33;;;;;;;1.80;1.70;;;21.80;99.90;;;;;;5063057;28;20182;-69
2023/07/30 06:43:59;;;;;;;2.90;1.97;;;21.80;99.90;;;;;;5064436;28;20648;-68
2023/07/30 06:46:24;;;;;;;2.63;1.73;;;21.60;99.90;;;;;;5065817;28;20197;-68
2023/07/30 06:48:50;;;;;;;2.87;2.00;;;21.70;99.90;;;;;;5057116;28;20235;-69
2023/07/30 06:51:19;;;;;;;2.63;1.90;;;21.70;99.90;;;;;;5059824;28;20291;-68
2023/07/30 06:53:44;;;;;;;3.50;2.30;;;22.10;99.90;;;;;;5063063;28;20170;-68
2023/07/30 06:56:10;;;;;;;3.93;1.90;;;22.20;99.90;;;;;;5065498;28;20402;-70
2023/07/30 06:58:35;;;;;;;1.80;1.70;;;22.40;99.90;;;;;;5065047;28;20212;-70
2023/07/30 07:01:01;;;;;;;4.13;1.93;;;22.50;99.90;;;;;;5064617;28;20178;-69
2023/07/30 07:03:27;;;;;;;2.00;1.80;;;22.40;99.90;;;;;;5062080;28;20264;-69
2023/07/30 07:05:54;;;;;;;2.70;1.77;;;22.30;99.90;;;;;;5064864;28;20204;-69
2023/07/30 07:08:20;;;;;;;1.57;1.47;;;22.20;99.90;;;;;;5064288;28;20538;-70
2023/07/30 07:10:46;;;;;;;2.03;1.63;;;22.20;99.90;;;;;;5065268;28;20424;-68
2023/07/30 07:13:14;;;;;;;3.00;2.20;;;22.20;99.90;;;;;;5062165;28;20449;-69
2023/07/30 07:15:41;;;;;;;2.33;1.67;;;22.20;99.90;;;;;;5066845;28;20158;-70
2023/07/30 07:18:06;;;;;;;2.40;1.70;;;22.20;99.90;;;;;;5068338;28;20412;-69
2023/07/30 07:20:32;;;;;;;2.30;1.77;;;22.20;99.90;;;;;;5059226;28;20416;-69
2023/07/30 07:22:57;;;;;;;1.80;1.70;;;22.20;99.90;;;;;;5064406;28;20234;-69
2023/07/30 07:25:23;;;;;;;3.00;1.80;;;22.40;99.90;;;;;;5060520;28;20173;-69
2023/07/30 07:27:49;;;;;;;1.50;1.40;;;22.30;99.90;;;;;;5065007;28;20182;-69
2023/07/30 07:30:14;;;;;;;2.33;1.60;;;22.20;99.90;;;;;;5062197;28;20527;-68
2023/07/30 07:32:40;;;;;;;2.40;1.70;;;22.20;99.90;;;;;;5063202;28;20194;-70
2023/07/30 07:35:06;;;;;;;1.60;1.50;;;22.30;99.90;;;;;;5064350;28;20166;-70
2023/07/30 07:37:33;;;;;;;2.77;1.70;;;21.80;99.90;;;;;;5063644;28;20166;-68
2023/07/30 07:39:58;;;;;;;2.43;1.87;;;21.70;99.90;;;;;;5062816;28;20412;-69
2023/07/30 07:42:24;;;;;;;2.63;1.80;;;21.40;99.90;;;;;;5062504;28;20421;-69
2023/07/30 07:44:49;;;;;;;3.83;1.57;;;21.10;99.90;;;;;;5065003;28;20173;-67
2023/07/30 07:47:15;;;;;;;2.10;1.70;;;21.00;99.90;;;;;;5061892;28;20194;-70
2023/07/30 07:49:41;;;;;;;2.80;1.47;;;20.90;99.90;;;;;;5059229;28;20656;-69
2023/07/30 07:52:07;;;;;;;2.10;1.80;;;21.10;99.90;;;;;;5064392;28;20181;-68
2023/07/30 07:54:32;;;;;;;3.40;2.07;;;21.20;99.90;;;;;;5061099;28;20163;-69
2023/07/30 07:56:58;;;;;;;2.60;1.37;;;21.50;99.90;;;;;;5060324;28;20198;-70
2023/07/30 07:59:24;;;;;;;2.00;1.83;;;21.60;99.90;;;;;;5064740;28;20170;-69
2023/07/30 08:01:49;;;;;;;1.73;1.63;;;21.70;99.90;;;;;;5060238;28;20251;-70
2023/07/30 08:04:15;;;;;;;2.40;1.20;;;22.20;99.90;;;;;;5061816;28;20421;-69
2023/07/30 08:06:41;;;;;;;1.40;1.20;;;22.40;99.90;;;;;;5061470;28;20186;-69
2023/07/30 08:09:06;;;;;;;2.00;1.70;;;22.20;99.90;;;;;;5064766;28;20571;-69
2023/07/30 08:11:32;;;;;;;1.90;1.50;;;22.30;99.90;;;;;;5062835;28;20317;-69
2023/07/30 08:13:57;;;;;;;2.00;1.90;;;22.30;99.90;;;;;;5061819;28;20162;-69
2023/07/30 08:16:23;;;;;;;1.80;1.70;;;22.30;99.90;;;;;;5063252;28;21015;-69
2023/07/30 08:18:49;;;;;;;1.60;1.50;;;22.30;99.90;;;;;;5062811;28;20171;-69
2023/07/30 08:21:17;;;;;;;1.93;1.40;;;22.10;99.90;;;;;;5063479;28;20185;-69
2023/07/30 08:23:43;;;;;;;3.77;1.30;;;22.20;99.90;;;;;;5061571;28;20547;-69
2023/07/30 08:26:08;;;;;;;1.73;1.50;;;22.30;99.90;;;;;;5065437;28;20456;-69
2023/07/30 08:28:34;;;;;;;1.30;1.13;;;22.70;99.90;;;;;;5062607;28;20636;-69
2023/07/30 08:31:02;;;;;;;1.67;1.57;;;22.60;99.90;;;;;;5064389;28;20162;-69
2023/07/30 08:33:27;;;;;;;1.50;1.40;;;22.70;99.90;;;;;;5058368;28;20188;-68
2023/07/30 08:35:56;;;;;;;2.23;2.03;;;22.70;99.90;;;;;;5061493;28;20481;-69
2023/07/30 08:38:22;;;;;;;3.20;1.70;;;22.80;99.90;;;;;;5063273;28;20249;-70
2023/07/30 08:40:48;;;;;;;1.87;1.47;;;22.90;99.90;;;;;;5061407;28;20425;-69
2023/07/30 08:43:14;;;;;;;2.20;1.50;;;23.00;99.90;;;;;;5061132;28;20966;-69
2023/07/30 08:45:39;;;;;;;1.60;1.47;;;23.20;99.90;;;;;;5062440;28;20651;-69
2023/07/30 08:48:05;;;;;;;1.47;1.27;;;23.10;99.90;;;;;;5061033;28;20289;-70
2023/07/30 08:50:32;;;;;;;1.80;1.60;;;23.30;99.90;;;;;;5064064;28;20219;-70
2023/07/30 08:53:00;;;;;;;2.23;2.03;;;23.30;99.90;;;;;;5062231;28;20610;-69
2023/07/30 08:55:29;;;;;;;2.27;2.00;;;22.90;99.90;;;;;;5061593;28;20440;-69
2023/07/30 08:57:56;;;;;;;1.90;1.57;;;22.70;99.90;;;;;;5061279;28;20872;-68
2023/07/30 09:00:25;;;;;;;2.10;1.73;;;22.80;99.90;;;;;;5057168;28;20848;-69
2023/07/30 09:02:59;;;;;;;2.03;1.43;;;23.00;99.90;;;;;;5062757;28;20435;-70
2023/07/30 09:05:28;;;;;;;2.37;1.80;;;23.30;99.90;;;;;;5063101;28;20408;-69
2023/07/30 09:07:53;;;;;;;1.77;1.67;;;23.40;99.90;;;;;;5062391;28;20467;-70
2023/07/30 09:10:19;;;;;;;1.93;1.73;;;23.50;99.90;;;;;;5063803;28;21004;-70
2023/07/30 09:12:44;;;;;;;2.43;1.60;;;23.40;99.90;;;;;;5060925;28;20289;-69
2023/07/30 09:15:10;;;;;;;1.50;1.40;;;23.40;99.90;;;;;;5062469;28;20178;-69
2023/07/30 09:17:36;;;;;;;1.40;1.30;;;23.40;99.90;;;;;;5063771;28;20247;-69
2023/07/30 09:20:03;;;;;;;3.03;1.90;;;23.60;99.90;;;;;;5063699;28;20178;-70
2023/07/30 09:22:36;;;;;;;1.70;1.50;;;23.20;99.90;;;;;;5061771;28;20521;-70
2023/07/30 09:25:03;;;;;;;1.53;1.40;;;23.20;99.90;;;;;;5058318;28;20420;-70
2023/07/30 09:27:29;;;;;;;2.00;1.80;;;23.10;99.90;;;;;;5061227;28;20817;-70
2023/07/30 09:29:56;;;;;;;3.53;2.50;;;23.20;99.90;;;;;;5064602;28;20462;-69
2023/07/30 09:32:30;;;;;;;1.50;1.40;;;23.10;99.90;;;;;;5065301;28;20472;-69
2023/07/30 09:35:04;;;;;;;2.10;1.80;;;22.90;99.90;;;;;;5067042;28;20500;-70
2023/07/30 09:37:30;;;;;;;2.30;1.90;;;23.00;99.90;;;;;;5064947;28;20401;-69
2023/07/30 09:39:58;;;;;;;2.57;1.93;;;22.80;99.90;;;;;;5066794;28;20412;-70
2023/07/30 09:42:27;;;;;;;2.13;1.93;;;22.50;99.90;;;;;;5064126;28;20190;-69
2023/07/30 09:44:53;;;;;;;2.10;1.90;;;22.30;99.90;;;;;;5060309;28;20397;-69
2023/07/30 09:47:18;;;;;;;3.30;2.20;;;22.30;99.90;;;;;;5067169;28;20496;-72
2023/07/30 09:49:44;;;;;;;2.83;2.10;;;22.30;99.90;;;;;;5064197;28;20182;-70
2023/07/30 09:52:11;;;;;;;2.33;1.90;;;22.30;99.90;;;;;;5066993;28;20305;-69
2023/07/30 09:54:39;;;;;;;2.10;1.90;;;22.30;99.90;;;;;;5064717;28;20170;-69
2023/07/30 09:57:05;;;;;;;3.13;2.00;;;22.50;99.90;;;;;;5067338;28;20902;-70
2023/07/30 09:59:30;;;;;;;2.87;2.03;;;22.60;99.90;;;;;;5064073;28;20405;-70
2023/07/30 10:01:58;;;;;;;3.37;2.40;;;22.80;99.90;;;;;;5059525;28;20439;-70
2023/07/30 10:04:24;;;;;;;2.67;2.20;;;23.10;99.90;;;;;;5063615;28;20211;-71
2023/07/30 10:06:58;;;;;;;4.33;2.17;;;22.90;99.90;;;;;;5064829;28;20532;-70
2023/07/30 10:09:28;;;;;;;2.70;1.93;;;23.00;99.90;;;;;;5066388;28;20400;-71
2023/07/30 10:11:54;;;;;;;2.60;2.10;;;23.20;99.90;;;;;;5063742;28;20506;-70
2023/07/30 10:14:23;;;;;;;3.00;2.27;;;22.90;99.90;;;;;;5066327;28;20408;-70
2023/07/30 10:17:01;;;;;;;2.27;2.07;;;23.10;99.90;;;;;;5065922;28;20926;-70
2023/07/30 10:19:28;;;;;;;3.53;1.93;;;23.50;99.90;;;;;;5064690;28;20401;-70
2023/07/30 10:22:22;;;;;;;2.90;2.53;;;23.40;99.90;;;;;;5065893;28;20460;-71
2023/07/30 10:25:03;;;;;;;2.23;2.03;;;23.30;99.90;;;;;;5058640;28;20483;-71
2023/07/30 10:27:38;;;;;;;3.97;2.03;;;23.00;99.90;;;;;;5061817;28;20444;-71
2023/07/30 10:30:19;;;;;;;3.00;1.90;;;22.80;99.90;;;;;;5063612;28;20397;-71
2023/07/30 10:32:59;;;;;;;2.50;2.30;;;22.90;99.90;;;;;;5064476;28;20420;-70
2023/07/30 10:35:48;;;;;;;3.53;2.30;;;23.00;99.90;;;;;;5064608;28;20397;-71
2023/07/30 10:38:22;;;;;;;2.27;2.03;;;23.10;99.90;;;;;;5059992;28;20824;-71
2023/07/30 10:41:10;;;;;;;3.10;2.40;;;23.20;99.90;;;;;;5058547;28;20473;-70
2023/07/30 10:43:37;;;;;;;2.30;2.10;;;23.20;99.90;;;;;;5064211;28;20400;-71
2023/07/30 10:46:03;;;;;;;2.10;1.90;;;23.50;99.90;;;;;;5063280;28;20408;-71
2023/07/30 10:48:36;;;;;;;3.20;2.23;;;23.50;99.90;;;;;;5063471;28;20930;-71
2023/07/30 10:51:05;;;;;;;3.10;2.47;;;23.80;99.90;;;;;;5059531;28;20410;-71
2023/07/30 10:53:31;;;;;;;3.03;2.30;;;23.70;99.90;;;;;;5065260;28;20419;-71
2023/07/30 10:56:02;;;;;;;5.40;3.00;;;23.70;99.90;;;;;;5063177;28;20392;-71
2023/07/30 10:58:32;;;;;;;2.87;2.37;;;23.50;99.90;;;;;;5059184;28;20163;-71
2023/07/30 11:00:58;;;;;;;2.83;2.40;;;23.20;99.90;;;;;;5066804;28;20418;-71
2023/07/30 11:03:27;;;;;;;2.87;2.33;;;23.40;99.90;;;;;;5063824;28;20421;-71
2023/07/30 11:05:53;;;;;;;3.07;2.67;;;23.60;99.90;;;;;;5063602;28;20393;-72
2023/07/30 11:08:19;;;;;;;2.20;2.00;;;24.20;99.90;;;;;;5068675;28;20902;-72
2023/07/30 11:10:48;;;;;;;2.63;2.03;;;24.90;99.90;;;;;;5067251;28;20405;-72
2023/07/30 11:13:14;;;;;;;2.60;2.40;;;24.70;99.90;;;;;;5067630;28;20424;-71
2023/07/30 11:15:44;;;;;;;3.00;2.50;;;24.20;99.90;;;;;;5068369;28;20495;-72
2023/07/30 11:18:11;;;;;;;2.60;2.37;;;23.90;99.90;;;;;;5059217;28;20171;-71
2023/07/30 11:20:37;;;;;;;2.47;1.93;;;23.60;99.90;;;;;;5063626;28;20491;-71
2023/07/30 11:23:17;;;;;;;2.80;2.40;;;23.70;99.90;;;;;;5067839;28;20445;-71
2023/07/30 11:25:46;;;;;;;2.10;1.83;;;23.50;99.90;;;;;;5066046;28;20400;-71
2023/07/30 11:28:12;;;;;;;3.10;2.53;;;23.10;99.90;;;;;;5067756;28;20519;-71
2023/07/30 11:30:38;;;;;;;2.20;1.80;;;22.80;99.90;;;;;;5066603;28;20455;-71
2023/07/30 11:33:03;;;;;;;2.53;2.13;;;22.90;99.90;;;;;;5069414;28;20191;-71
2023/07/30 11:35:29;;;;;;;2.63;1.80;;;23.90;99.90;;;;;;5067527;28;20170;-72
2023/07/30 11:37:55;;;;;;;2.87;2.53;;;24.70;99.90;;;;;;5062785;28;20593;-71
2023/07/30 11:40:21;;;;;;;2.97;2.27;;;25.60;99.90;;;;;;5065126;28;20193;-71
2023/07/30 11:42:47;;;;;;;4.20;2.13;;;26.20;99.90;;;;;;5065036;28;20197;-72
2023/07/30 11:45:21;;;;;;;2.67;1.70;;;26.50;99.90;;;;;;5067194;28;20392;-71
2023/07/30 11:47:47;;;;;;;2.80;2.13;;;27.10;99.90;;;;;;5065993;28;20187;-71
2023/07/30 11:50:13;;;;;;;3.30;2.13;;;28.00;99.60;;;;;;5059955;28;20405;-72
2023/07/30 11:52:54;;;;;;;3.27;2.13;;;27.30;99.50;;;;;;5069088;28;20418;-71
2023/07/30 11:55:20;;;;;;;4.10;2.03;;;27.70;99.60;;;;;;5068267;28;20628;-71
2023/07/30 11:57:46;;;;;;;2.70;2.03;;;27.80;98.70;;;;;;5065235;28;20409;-70
2023/07/30 12:00:12;;;;;;;2.23;2.03;;;27.60;99.10;;;;;;5067722;28;20476;-71
2023/07/30 12:02:38;;;;;;;2.67;2.40;;;27.10;98.90;;;;;;5064150;28;20199;-70
2023/07/30 12:05:05;;;;;;;2.70;2.10;;;26.00;99.90;;;;;;5061206;28;20235;-71
2023/07/30 12:07:32;;;;;;;3.23;2.20;;;25.20;99.90;;;;;;5064288;28;20444;-70
2023/07/30 12:10:13;;;;;;;3.13;2.00;;;25.20;99.90;;;;;;5062696;28;20404;-71
2023/07/30 12:12:46;;;;;;;2.53;2.33;;;25.40;99.90;;;;;;5059065;28;20417;-71
2023/07/30 12:15:12;;;;;;;2.43;2.10;;;24.80;99.90;;;;;;5064670;28;20397;-71
2023/07/30 12:17:38;;;;;;;2.23;2.03;;;24.80;99.90;;;;;;5061558;28;20420;-71
2023/07/30 12:20:06;;;;;;;2.63;2.07;;;24.70;99.90;;;;;;5064037;28;20416;-69
2023/07/30 12:22:34;;;;;;;2.50;2.30;;;25.50;99.90;;;;;;5061911;28;20535;-70
2023/07/30 12:25:00;;;;;;;2.53;2.10;;;26.50;99.90;;;;;;5063242;28;20949;-71
2023/07/30 12:27:26;;;;;;;3.00;2.33;;;27.60;99.50;;;;;;5061444;28;20451;-71
2023/07/30 12:29:52;;;;;;;3.67;2.03;;;28.70;96.40;;;;;;5066630;28;20404;-71
2023/07/30 12:32:18;;;;;;;3.40;2.00;;;29.20;95.80;;;;;;5063958;28;20183;-72
2023/07/30 12:34:43;;;;;;;2.33;1.83;;;29.90;93.90;;;;;;5059149;28;20274;-71
2023/07/30 12:37:09;;;;;;;2.80;2.10;;;29.60;94.00;;;;;;5062216;28;20182;-71
2023/07/30 12:39:35;;;;;;;3.00;2.33;;;29.20;93.30;;;;;;5061906;28;20277;-71
2023/07/30 12:42:00;;;;;;;2.17;1.97;;;29.30;93.90;;;;;;5066837;28;20189;-71
2023/07/30 12:44:26;;;;;;;3.10;2.20;;;28.80;94.00;;;;;;5064862;28;20231;-71